Time;durP1;ratioP1;P1;durP2;ratioP2;P2;SDS_P1;SDS_P2;PMS_P1;PMS_P2;Temp;Humidity;BMP_temperature;BMP_pressure;BME280_temperature;BME280_humidity;BME280_pressure;Samples;Min_cycle;Max_cycle;Signal;HPM_P1;HPM_P2
2021/12/10 00:01:24;;;;;;;8.65;3.22;;;;;10.20;99552.00;;;;5029189;28;20193;-85
2021/12/10 00:03:53;;;;;;;9.05;4.15;;;;;10.20;99548.00;;;;5030719;28;20193;-85
2021/12/10 00:06:24;;;;;;;6.05;3.67;;;;;10.20;99539.00;;;;5028904;28;20677;-84
2021/12/10 00:08:56;;;;;;;6.25;3.63;;;;;10.20;99540.00;;;;5030530;28;20224;-85
2021/12/10 00:11:29;;;;;;;9.68;3.83;;;;;10.20;99529.00;;;;5031126;28;20196;-85
2021/12/10 00:13:57;;;;;;;6.53;3.20;;;;;10.20;99521.00;;;;5031243;28;20207;-85
2021/12/10 00:16:24;;;;;;;6.05;3.92;;;;;10.20;99526.00;;;;5030237;28;20209;-84
2021/12/10 00:18:56;;;;;;;5.63;3.90;;;;;10.20;99512.00;;;;5030312;28;20224;-85
2021/12/10 00:21:26;;;;;;;6.57;3.53;;;;;10.20;99513.00;;;;5030999;28;20192;-85
2021/12/10 00:23:56;;;;;;;8.02;3.30;;;;;10.20;99513.00;;;;5024358;28;20208;-85
2021/12/10 00:26:24;;;;;;;6.43;3.72;;;;;10.20;99513.00;;;;5011904;28;20685;-85
2021/12/10 00:29:01;;;;;;;6.07;3.80;;;;;10.20;99499.00;;;;5030945;28;20216;-85
2021/12/10 00:31:44;;;;;;;7.15;4.30;;;;;10.20;99501.00;;;;5029744;28;20577;-85
2021/12/10 00:34:18;;;;;;;7.43;4.25;;;;;10.20;99493.00;;;;5031043;28;20200;-84
2021/12/10 00:36:46;;;;;;;6.13;4.03;;;;;10.20;99483.00;;;;5030144;28;20567;-85
2021/12/10 00:39:20;;;;;;;6.15;3.78;;;;;10.20;99475.00;;;;5030390;28;20203;-86
2021/12/10 00:41:47;;;;;;;8.27;4.22;;;;;10.20;99473.00;;;;5028822;28;20228;-85
2021/12/10 00:44:14;;;;;;;6.30;3.83;;;;;10.20;99471.00;;;;5030184;28;20205;-85
2021/12/10 00:46:42;;;;;;;6.57;4.50;;;;;10.20;99461.00;;;;5029048;28;20597;-85
2021/12/10 00:49:09;;;;;;;6.47;4.25;;;;;10.20;99459.00;;;;5030121;28;20243;-85
2021/12/10 00:51:37;;;;;;;10.10;5.28;;;;;10.20;99467.00;;;;5010784;28;20197;-85
2021/12/10 00:54:05;;;;;;;8.55;4.53;;;;;10.20;99466.00;;;;5015606;28;20658;-85
2021/12/10 00:56:35;;;;;;;7.03;4.78;;;;;10.20;99466.00;;;;5029319;28;20828;-85
2021/12/10 00:59:02;;;;;;;5.57;4.10;;;;;10.20;99458.00;;;;5028982;28;20208;-85
2021/12/10 01:01:32;;;;;;;9.00;5.38;;;;;10.20;99453.00;;;;5029131;28;20204;-85
2021/12/10 01:04:11;;;;;;;8.13;4.60;;;;;10.10;99447.00;;;;5030118;28;20188;-85
2021/12/10 01:06:41;;;;;;;7.70;5.13;;;;;10.20;99439.00;;;;5023738;28;20739;-86
2021/12/10 01:09:12;;;;;;;8.15;5.00;;;;;10.20;99434.00;;;;5025151;28;20219;-85
2021/12/10 01:11:44;;;;;;;7.88;4.97;;;;;10.20;99426.00;;;;5028677;28;20185;-85
2021/12/10 01:14:21;;;;;;;5.82;4.20;;;;;10.20;99430.00;;;;5028498;28;20287;-85
2021/12/10 01:25:33;;;;;;;7.07;4.65;;;;;10.20;99400.00;;;;5011004;28;20227;-84
2021/12/10 01:28:02;;;;;;;6.68;4.28;;;;;10.20;99398.00;;;;5021212;28;20262;-85
2021/12/10 01:30:33;;;;;;;9.25;4.20;;;;;10.20;99384.00;;;;5028331;28;20224;-85
2021/12/10 01:33:02;;;;;;;5.82;4.38;;;;;10.20;99377.00;;;;5019036;28;20219;-84
2021/12/10 01:35:33;;;;;;;7.60;4.15;;;;;10.20;99369.00;;;;5028694;28;20219;-85
2021/12/10 01:38:03;;;;;;;5.63;3.67;;;;;10.20;99364.00;;;;5028241;28;20200;-84
2021/12/10 01:40:32;;;;;;;9.38;3.92;;;;;10.20;99371.00;;;;5029404;28;20219;-85
2021/12/10 01:43:07;;;;;;;7.47;4.15;;;;;10.10;99365.00;;;;5029625;28;20262;-84
2021/12/10 01:45:44;;;;;;;5.28;4.00;;;;;10.20;99359.00;;;;5028320;28;20227;-84
2021/12/10 01:48:19;;;;;;;5.35;3.53;;;;;10.10;99347.00;;;;5027497;28;20200;-85
2021/12/10 01:50:47;;;;;;;5.38;3.45;;;;;10.10;99351.00;;;;5018258;28;20200;-85
2021/12/10 01:53:17;;;;;;;6.57;3.50;;;;;10.10;99348.00;;;;5028901;28;20208;-85
2021/12/10 01:55:47;;;;;;;7.10;3.88;;;;;10.00;99346.00;;;;5028728;28;20228;-85
2021/12/10 01:58:19;;;;;;;5.53;3.50;;;;;10.00;99343.00;;;;5028779;28;20196;-85
2021/12/10 02:00:49;;;;;;;6.10;3.50;;;;;10.00;99343.00;;;;5028665;28;20200;-84
2021/12/10 02:03:17;;;;;;;6.70;3.90;;;;;10.00;99335.00;;;;5028306;28;20197;-84
2021/12/10 02:05:45;;;;;;;4.20;3.50;;;;;10.00;99326.00;;;;5028107;28;20196;-85
2021/12/10 02:08:12;;;;;;;6.50;3.72;;;;;10.00;99325.00;;;;5028640;28;20203;-85
2021/12/10 02:10:40;;;;;;;4.80;3.75;;;;;10.00;99319.00;;;;5029324;28;20228;-85
2021/12/10 02:13:07;;;;;;;7.35;3.35;;;;;10.00;99305.00;;;;5029278;28;20213;-84
2021/12/10 02:15:36;;;;;;;5.18;3.08;;;;;9.90;99310.00;;;;5026681;28;20210;-84
2021/12/10 02:18:04;;;;;;;7.03;3.35;;;;;9.90;99305.00;;;;5028168;28;20193;-84
2021/12/10 02:20:33;;;;;;;6.30;3.53;;;;;9.90;99289.00;;;;5028099;28;20208;-84
2021/12/10 02:23:05;;;;;;;5.97;3.30;;;;;9.90;99290.00;;;;5022706;28;20581;-85
2021/12/10 02:25:36;;;;;;;5.22;3.55;;;;;9.90;99286.00;;;;5027359;28;20196;-85
2021/12/10 02:28:06;;;;;;;6.30;3.42;;;;;9.80;99280.00;;;;5027370;28;20270;-82
2021/12/10 02:30:33;;;;;;;8.23;3.00;;;;;9.80;99274.00;;;;5027584;28;20219;-83
2021/12/10 02:33:01;;;;;;;4.05;3.05;;;;;9.80;99271.00;;;;5028252;28;20200;-84
2021/12/10 02:35:29;;;;;;;8.70;3.38;;;;;9.80;99265.00;;;;5027591;28;20231;-84
2021/12/10 02:37:57;;;;;;;5.63;3.42;;;;;9.80;99261.00;;;;5028529;28;20270;-84
2021/12/10 02:40:29;;;;;;;7.60;3.50;;;;;9.80;99259.00;;;;5027559;28;20211;-84
2021/12/10 02:42:59;;;;;;;5.50;3.40;;;;;9.70;99249.00;;;;5029085;28;20248;-85
2021/12/10 02:45:30;;;;;;;4.35;2.80;;;;;9.80;99237.00;;;;5023579;28;20192;-84
2021/12/10 02:48:00;;;;;;;6.13;3.70;;;;;9.80;99231.00;;;;5028163;28;20197;-85
2021/12/10 02:50:31;;;;;;;7.53;3.58;;;;;9.70;99225.00;;;;5027907;28;20216;-84
2021/12/10 02:52:58;;;;;;;4.65;3.00;;;;;9.70;99218.00;;;;5028750;28;20207;-83
2021/12/10 02:55:28;;;;;;;6.53;3.40;;;;;9.70;99219.00;;;;5027307;28;20358;-84
2021/12/10 02:57:58;;;;;;;6.68;2.85;;;;;9.70;99217.00;;;;5015031;28;20216;-84
2021/12/10 03:00:31;;;;;;;4.70;3.10;;;;;9.60;99205.00;;;;5027416;28;20192;-84
2021/12/10 03:02:59;;;;;;;7.63;2.92;;;;;9.70;99201.00;;;;5029149;28;20196;-84
2021/12/10 03:05:27;;;;;;;6.72;3.20;;;;;9.70;99198.00;;;;5027642;28;20995;-84
2021/12/10 03:07:55;;;;;;;7.63;3.20;;;;;9.60;99191.00;;;;5028789;28;20291;-84
2021/12/10 03:10:28;;;;;;;3.78;2.25;;;;;9.60;99187.00;;;;5028333;28;20227;-84
2021/12/10 03:12:56;;;;;;;3.17;2.33;;;;;9.60;99186.00;;;;5027785;28;20203;-85
2021/12/10 03:15:32;;;;;;;3.72;2.47;;;;;9.60;99182.00;;;;5028636;28;20203;-85
2021/12/10 03:18:00;;;;;;;3.83;2.13;;;;;9.60;99183.00;;;;5012613;28;20228;-84
2021/12/10 03:20:30;;;;;;;2.60;2.22;;;;;9.60;99176.00;;;;5028486;28;20232;-84
2021/12/10 03:22:58;;;;;;;4.75;2.05;;;;;9.70;99178.00;;;;5032128;28;20199;-84
2021/12/10 03:25:28;;;;;;;4.05;2.70;;;;;9.60;99165.00;;;;5031375;28;20192;-84
2021/12/10 03:27:56;;;;;;;3.50;2.28;;;;;9.70;99162.00;;;;5028440;28;20208;-86
2021/12/10 03:30:26;;;;;;;5.32;2.40;;;;;9.70;99166.00;;;;5030962;28;20220;-84
2021/12/10 03:32:55;;;;;;;3.22;2.13;;;;;9.70;99167.00;;;;5030982;28;20203;-83
2021/12/10 03:35:28;;;;;;;4.55;2.58;;;;;9.70;99152.00;;;;5031963;28;20208;-84
2021/12/10 03:37:57;;;;;;;3.17;2.00;;;;;9.80;99152.00;;;;5031731;28;20284;-83
2021/12/10 03:40:25;;;;;;;3.15;1.90;;;;;9.80;99147.00;;;;5032411;28;20204;-84
2021/12/10 03:42:58;;;;;;;3.72;2.08;;;;;9.80;99147.00;;;;5031266;28;20709;-84
2021/12/10 03:45:29;;;;;;;4.93;1.80;;;;;9.80;99145.00;;;;5031653;28;20196;-86
2021/12/10 03:47:58;;;;;;;3.17;2.25;;;;;9.80;99130.00;;;;5027973;28;20197;-84
2021/12/10 03:50:29;;;;;;;3.38;1.90;;;;;9.80;99127.00;;;;5032128;28;20205;-83
2021/12/10 03:52:57;;;;;;;5.68;1.60;;;;;9.80;99122.00;;;;5031556;28;20212;-86
2021/12/10 03:55:24;;;;;;;3.22;1.70;;;;;9.90;99124.00;;;;5030571;28;20219;-84
2021/12/10 03:57:55;;;;;;;2.00;1.30;;;;;9.80;99109.00;;;;5031532;28;20291;-83
2021/12/10 04:00:25;;;;;;;2.75;1.50;;;;;9.80;99103.00;;;;5030731;28;20189;-83
2021/12/10 04:02:53;;;;;;;2.72;1.52;;;;;9.90;99088.00;;;;5030999;28;20192;-83
2021/12/10 04:05:21;;;;;;;2.20;1.58;;;;;9.90;99097.00;;;;5021086;28;20197;-83
2021/12/10 04:07:48;;;;;;;2.88;1.73;;;;;9.90;99092.00;;;;5030928;28;20210;-83
2021/12/10 04:10:17;;;;;;;2.80;1.50;;;;;9.90;99078.00;;;;5030810;28;20254;-83
2021/12/10 04:12:45;;;;;;;3.08;1.52;;;;;9.90;99085.00;;;;5030739;28;20371;-83
2021/12/10 04:15:17;;;;;;;2.53;1.20;;;;;9.90;99087.00;;;;5031541;28;20199;-83
2021/12/10 04:17:44;;;;;;;3.25;1.63;;;;;9.90;99083.00;;;;5029967;28;20210;-84
2021/12/10 04:20:12;;;;;;;2.85;1.50;;;;;9.90;99080.00;;;;5030995;28;20725;-83
2021/12/10 04:22:50;;;;;;;2.15;1.55;;;;;9.80;99071.00;;;;5028719;28;20210;-82
2021/12/10 04:25:21;;;;;;;6.38;2.05;;;;;9.90;99076.00;;;;5030007;28;20231;-82
2021/12/10 04:27:50;;;;;;;1.95;1.33;;;;;9.90;99072.00;;;;5029382;28;20726;-83
2021/12/10 04:30:19;;;;;;;2.40;1.77;;;;;9.90;99065.00;;;;5030391;28;20220;-83
2021/12/10 04:32:47;;;;;;;3.70;1.90;;;;;10.00;99070.00;;;;5030555;28;20201;-83
2021/12/10 04:35:18;;;;;;;4.38;1.63;;;;;10.00;99061.00;;;;5030629;28;20294;-81
2021/12/10 04:37:46;;;;;;;3.50;1.80;;;;;10.00;99054.00;;;;5029720;28;20215;-82
2021/12/10 04:40:17;;;;;;;6.45;1.88;;;;;10.00;99058.00;;;;5029430;28;20204;-83
2021/12/10 04:42:44;;;;;;;3.97;1.35;;;;;10.00;99050.00;;;;5029746;28;20215;-82
2021/12/10 04:45:14;;;;;;;2.08;1.58;;;;;10.00;99040.00;;;;5028839;28;20197;-83
2021/12/10 04:47:42;;;;;;;3.10;1.63;;;;;10.00;99029.00;;;;5018593;28;20198;-82
2021/12/10 04:50:12;;;;;;;5.78;1.85;;;;;10.00;99027.00;;;;5031035;28;20224;-83
2021/12/10 04:52:39;;;;;;;2.05;1.30;;;;;10.10;99025.00;;;;5029762;28;20250;-82
2021/12/10 04:55:10;;;;;;;4.20;1.85;;;;;10.10;99024.00;;;;5029407;28;20231;-83
2021/12/10 04:57:38;;;;;;;2.53;1.70;;;;;10.10;99016.00;;;;5030308;28;20200;-83
2021/12/10 05:00:07;;;;;;;2.03;1.77;;;;;10.10;99007.00;;;;5030405;28;20208;-83
2021/12/10 05:02:36;;;;;;;3.03;1.50;;;;;10.10;99007.00;;;;5029340;28;20566;-83
2021/12/10 05:11:49;;;;;;;5.65;1.48;;;;;10.10;98993.00;;;;4939308;28;20215;-84
2021/12/10 05:14:17;;;;;;;3.60;1.42;;;;;10.20;98995.00;;;;5016962;28;20203;-81
2021/12/10 05:16:46;;;;;;;3.13;1.48;;;;;10.20;98993.00;;;;5028187;28;20557;-82
2021/12/10 05:19:16;;;;;;;4.55;1.80;;;;;10.20;98983.00;;;;5029421;28;20650;-83
2021/12/10 05:21:46;;;;;;;3.30;1.40;;;;;10.20;98985.00;;;;5025476;28;20200;-84
2021/12/10 05:24:13;;;;;;;2.10;1.23;;;;;10.20;98989.00;;;;5030113;28;20246;-85
2021/12/10 05:26:41;;;;;;;4.72;1.42;;;;;10.20;98980.00;;;;5028395;28;20705;-82
2021/12/10 05:29:11;;;;;;;8.45;1.60;;;;;10.20;98979.00;;;;5028710;28;20207;-84
2021/12/10 05:31:43;;;;;;;3.47;1.38;;;;;10.30;98979.00;;;;5022615;28;20223;-84
2021/12/10 05:34:10;;;;;;;2.70;1.35;;;;;10.30;98974.00;;;;5028544;28;20196;-84
2021/12/10 05:36:38;;;;;;;2.45;1.30;;;;;10.30;98968.00;;;;5028674;28;20196;-83
2021/12/10 05:39:07;;;;;;;2.00;1.10;;;;;10.30;98965.00;;;;5027946;28;20697;-82
2021/12/10 05:41:35;;;;;;;1.92;1.15;;;;;10.30;98961.00;;;;5028103;28;20196;-84
2021/12/10 05:44:02;;;;;;;3.40;1.13;;;;;10.40;98957.00;;;;5025527;28;20697;-83
2021/12/10 05:46:31;;;;;;;2.40;1.33;;;;;10.40;98962.00;;;;5026731;28;20208;-82
2021/12/10 05:48:58;;;;;;;5.40;1.45;;;;;10.40;98960.00;;;;5024482;28;20207;-84
2021/12/10 05:51:26;;;;;;;2.17;0.82;;;;;10.40;98957.00;;;;5026726;28;20231;-83
2021/12/10 05:53:53;;;;;;;1.13;0.68;;;;;10.40;98963.00;;;;5028233;28;20208;-85
2021/12/10 05:56:20;;;;;;;4.13;0.90;;;;;10.40;98962.00;;;;5028240;28;20227;-84
2021/12/10 05:58:48;;;;;;;2.35;1.27;;;;;10.40;98954.00;;;;5028402;28;20204;-84
2021/12/10 06:01:18;;;;;;;2.38;1.08;;;;;10.40;98957.00;;;;5022018;28;20772;-84
2021/12/10 06:03:52;;;;;;;1.95;1.08;;;;;10.40;98947.00;;;;5028014;28;20624;-83
2021/12/10 06:06:20;;;;;;;2.45;1.20;;;;;10.40;98948.00;;;;5028288;28;20227;-84
2021/12/10 06:08:48;;;;;;;2.63;1.10;;;;;10.50;98945.00;;;;5029160;28;20211;-84
2021/12/10 06:11:16;;;;;;;2.05;1.00;;;;;10.50;98946.00;;;;5028539;28;20228;-84
2021/12/10 06:13:45;;;;;;;5.72;1.30;;;;;10.50;98936.00;;;;5023342;28;20247;-84
2021/12/10 06:16:13;;;;;;;1.40;1.10;;;;;10.50;98943.00;;;;5020136;28;20240;-84
2021/12/10 06:18:41;;;;;;;3.83;1.75;;;;;10.50;98936.00;;;;5023155;28;20591;-83
2021/12/10 06:21:12;;;;;;;3.38;1.10;;;;;10.50;98933.00;;;;5018276;28;20228;-85
2021/12/10 06:23:40;;;;;;;2.42;1.17;;;;;10.50;98936.00;;;;5017357;28;20204;-82
2021/12/10 06:26:07;;;;;;;4.10;1.20;;;;;10.50;98929.00;;;;5018825;28;20200;-85
2021/12/10 06:28:37;;;;;;;3.53;1.30;;;;;10.50;98933.00;;;;5020790;28;20199;-82
2021/12/10 06:31:04;;;;;;;2.25;1.00;;;;;10.50;98936.00;;;;5019727;28;20231;-83
2021/12/10 06:33:32;;;;;;;3.60;1.23;;;;;10.50;98937.00;;;;5020065;28;20200;-84
2021/12/10 06:36:03;;;;;;;5.65;0.90;;;;;10.50;98936.00;;;;5020598;28;20204;-84
2021/12/10 06:38:33;;;;;;;6.07;1.48;;;;;10.50;98941.00;;;;5016097;28;20216;-84
2021/12/10 06:41:00;;;;;;;1.70;1.13;;;;;10.50;98930.00;;;;5023325;28;20207;-82
2021/12/10 06:43:28;;;;;;;2.60;1.05;;;;;10.50;98926.00;;;;5029333;28;20232;-81
2021/12/10 06:45:55;;;;;;;8.73;1.05;;;;;10.50;98933.00;;;;5029494;28;20231;-82
2021/12/10 06:48:26;;;;;;;1.77;1.15;;;;;10.50;98926.00;;;;5027993;28;20200;-84
2021/12/10 06:50:58;;;;;;;2.38;0.85;;;;;10.40;98937.00;;;;5024608;28;20224;-84
2021/12/10 06:53:28;;;;;;;2.38;1.35;;;;;10.50;98931.00;;;;5032016;28;20223;-84
2021/12/10 06:55:59;;;;;;;1.70;0.75;;;;;10.40;98933.00;;;;5030850;28;20224;-83
2021/12/10 06:58:27;;;;;;;4.55;1.40;;;;;10.50;98931.00;;;;5032009;28;20507;-80
2021/12/10 07:01:00;;;;;;;1.42;0.93;;;;;10.40;98936.00;;;;5032421;28;20224;-82
2021/12/10 07:03:29;;;;;;;4.07;1.38;;;;;10.50;98935.00;;;;5024788;28;20215;-83
2021/12/10 07:05:59;;;;;;;5.38;2.10;;;;;10.40;98939.00;;;;5012077;28;20451;-84
2021/12/10 07:08:28;;;;;;;3.45;1.38;;;;;10.50;98945.00;;;;5017719;28;20192;-83
2021/12/10 07:10:58;;;;;;;2.05;0.98;;;;;10.50;98947.00;;;;5032674;28;20220;-82
2021/12/10 07:13:26;;;;;;;2.78;0.77;;;;;10.50;98946.00;;;;5013627;28;20656;-82
2021/12/10 07:15:54;;;;;;;2.05;1.00;;;;;10.50;98942.00;;;;5013324;28;20205;-83
2021/12/10 07:18:22;;;;;;;2.63;1.10;;;;;10.50;98941.00;;;;5016470;28;20203;-84
2021/12/10 07:20:52;;;;;;;2.30;1.10;;;;;10.50;98943.00;;;;5032153;28;20235;-85
2021/12/10 07:23:20;;;;;;;1.67;1.13;;;;;10.50;98948.00;;;;5032294;28;20243;-81
2021/12/10 07:25:48;;;;;;;2.70;1.02;;;;;10.50;98950.00;;;;5032370;28;20207;-83
2021/12/10 07:28:17;;;;;;;2.55;1.15;;;;;10.50;98956.00;;;;5030169;28;20246;-85
2021/12/10 07:30:46;;;;;;;4.05;1.30;;;;;10.50;98953.00;;;;5011370;28;20239;-84
2021/12/10 07:33:13;;;;;;;1.80;1.05;;;;;10.50;98953.00;;;;5010530;28;20590;-85
2021/12/10 07:35:40;;;;;;;3.03;0.88;;;;;10.50;98945.00;;;;5017229;28;20200;-85
2021/12/10 07:38:09;;;;;;;3.08;1.00;;;;;10.50;98943.00;;;;5030809;28;20585;-83
2021/12/10 07:40:37;;;;;;;1.40;0.85;;;;;10.50;98942.00;;;;5031622;28;20196;-85
2021/12/10 07:43:05;;;;;;;2.63;1.20;;;;;10.50;98942.00;;;;5031645;28;20732;-83
2021/12/10 07:45:35;;;;;;;3.10;1.33;;;;;10.50;98942.00;;;;5028816;28;20227;-82
2021/12/10 07:48:07;;;;;;;2.75;1.30;;;;;10.50;98956.00;;;;5026184;28;20192;-82
2021/12/10 07:50:38;;;;;;;2.45;1.27;;;;;10.50;98954.00;;;;5030958;28;20220;-84
2021/12/10 07:53:06;;;;;;;6.07;1.95;;;;;10.50;98953.00;;;;5030700;28;20197;-86
2021/12/10 07:55:37;;;;;;;2.17;1.00;;;;;10.50;98963.00;;;;5029818;28;20728;-83
2021/12/10 07:58:07;;;;;;;1.50;1.00;;;;;10.50;98963.00;;;;5030641;28;20208;-84
2021/12/10 08:00:40;;;;;;;3.05;0.95;;;;;10.50;98968.00;;;;5031371;28;20204;-84
2021/12/10 08:03:07;;;;;;;2.78;1.15;;;;;10.60;98967.00;;;;5033618;28;20204;-84
2021/12/10 08:05:36;;;;;;;2.92;0.90;;;;;10.60;98965.00;;;;5038189;28;20192;-85
2021/12/10 08:08:05;;;;;;;1.80;1.10;;;;;10.60;98960.00;;;;5034723;28;20208;-84
2021/12/10 08:10:33;;;;;;;3.83;1.13;;;;;10.60;98966.00;;;;5033479;28;20204;-83
2021/12/10 08:13:01;;;;;;;3.15;1.42;;;;;10.70;98965.00;;;;5033107;28;20208;-84
2021/12/10 08:15:28;;;;;;;3.33;1.52;;;;;10.70;98961.00;;;;5034232;28;20192;-83
2021/12/10 08:17:57;;;;;;;1.30;0.65;;;;;10.70;98965.00;;;;5034012;28;20199;-84
2021/12/10 08:20:26;;;;;;;1.73;0.88;;;;;10.80;98965.00;;;;5031769;28;20197;-81
2021/12/10 08:22:55;;;;;;;4.18;1.38;;;;;10.80;98965.00;;;;5030282;28;20553;-81
2021/12/10 08:25:24;;;;;;;2.17;1.08;;;;;10.80;98961.00;;;;5038205;28;20196;-80
2021/12/10 08:27:52;;;;;;;1.70;1.08;;;;;10.80;98962.00;;;;5035998;28;20402;-81
2021/12/10 08:30:22;;;;;;;2.03;0.98;;;;;10.80;98963.00;;;;5033562;28;20243;-81
2021/12/10 08:32:54;;;;;;;1.98;1.00;;;;;10.80;98963.00;;;;5035758;28;20211;-81
2021/12/10 08:35:26;;;;;;;5.40;1.25;;;;;10.80;98956.00;;;;5037433;28;20250;-80
2021/12/10 08:37:54;;;;;;;3.95;1.33;;;;;10.90;98963.00;;;;5032431;28;20258;-80
2021/12/10 08:40:27;;;;;;;2.28;1.23;;;;;10.90;98968.00;;;;5032176;28;20204;-81
2021/12/10 08:42:54;;;;;;;3.47;1.50;;;;;10.90;98960.00;;;;5029505;28;20213;-82
2021/12/10 08:45:23;;;;;;;2.67;1.40;;;;;10.90;98969.00;;;;5029134;28;20208;-81
2021/12/10 08:47:51;;;;;;;5.55;1.35;;;;;10.90;98969.00;;;;5034084;28;20200;-82
2021/12/10 08:50:23;;;;;;;3.25;1.60;;;;;11.00;98976.00;;;;5033139;28;20199;-81
2021/12/10 08:52:54;;;;;;;3.78;1.25;;;;;11.00;98973.00;;;;5034230;28;20278;-82
2021/12/10 08:55:22;;;;;;;3.65;1.27;;;;;11.00;98975.00;;;;5031379;28;20259;-82
2021/12/10 08:57:49;;;;;;;5.32;1.50;;;;;11.10;98989.00;;;;5033767;28;20200;-82
2021/12/10 09:00:20;;;;;;;3.42;1.23;;;;;11.00;98980.00;;;;5034750;28;20208;-84
2021/12/10 09:02:47;;;;;;;4.47;1.70;;;;;11.10;98985.00;;;;5027967;28;20192;-83
2021/12/10 09:05:15;;;;;;;5.85;1.55;;;;;11.10;98987.00;;;;5029370;28;20207;-86
2021/12/10 09:07:44;;;;;;;2.47;1.05;;;;;11.10;98983.00;;;;5020980;28;20201;-83
2021/12/10 09:10:15;;;;;;;3.30;1.55;;;;;11.10;98987.00;;;;5020977;28;20192;-86
2021/12/10 09:12:43;;;;;;;2.47;1.38;;;;;11.20;98983.00;;;;5023479;28;20239;-87
2021/12/10 09:15:16;;;;;;;3.70;1.27;;;;;11.20;98989.00;;;;5028817;28;20646;-86
2021/12/10 09:17:45;;;;;;;3.10;1.80;;;;;11.20;98992.00;;;;5024252;28;20678;-86
2021/12/10 09:20:15;;;;;;;1.95;1.15;;;;;11.20;98995.00;;;;5028775;28;20582;-86
2021/12/10 09:22:43;;;;;;;6.53;1.83;;;;;11.30;99003.00;;;;5027837;28;20196;-87
2021/12/10 09:25:13;;;;;;;2.17;1.17;;;;;11.30;98995.00;;;;5027988;28;20682;-86
2021/12/10 09:27:41;;;;;;;3.25;1.45;;;;;11.30;98995.00;;;;5027539;28;20700;-86
2021/12/10 09:30:12;;;;;;;3.40;1.75;;;;;11.30;98998.00;;;;5029527;28;20211;-85
2021/12/10 09:32:39;;;;;;;4.03;2.50;;;;;11.40;98995.00;;;;5027090;28;20254;-87
2021/12/10 09:35:10;;;;;;;3.33;1.75;;;;;11.40;98997.00;;;;5029674;28;20204;-84
2021/12/10 09:37:40;;;;;;;2.50;1.65;;;;;11.40;99007.00;;;;5030671;28;20193;-83
2021/12/10 09:40:12;;;;;;;5.53;1.85;;;;;11.40;99011.00;;;;5029033;28;20196;-81
2021/12/10 09:42:43;;;;;;;6.05;2.10;;;;;11.40;99013.00;;;;5032530;28;20215;-81
2021/12/10 09:45:15;;;;;;;2.40;1.50;;;;;11.40;99013.00;;;;5025683;28;20675;-81
2021/12/10 09:47:42;;;;;;;2.83;1.42;;;;;11.40;99013.00;;;;5031061;28;20192;-82
2021/12/10 09:50:11;;;;;;;4.00;1.67;;;;;11.40;99017.00;;;;5031566;28;20192;-82
2021/12/10 09:52:38;;;;;;;4.20;1.90;;;;;11.40;99019.00;;;;5029684;28;20239;-83
2021/12/10 09:55:08;;;;;;;1.88;1.50;;;;;11.40;99015.00;;;;5029132;28;20228;-81
2021/12/10 09:57:37;;;;;;;2.15;1.60;;;;;11.50;99019.00;;;;5031776;28;20666;-83
2021/12/10 10:00:12;;;;;;;6.30;3.40;;;;;11.40;99023.00;;;;5033611;28;20449;-82
2021/12/10 10:02:41;;;;;;;6.68;1.88;;;;;11.60;99027.00;;;;5031718;28;20192;-87
2021/12/10 10:05:10;;;;;;;2.40;1.45;;;;;11.50;99011.00;;;;5029027;28;20207;-86
2021/12/10 10:07:38;;;;;;;4.68;1.50;;;;;11.50;99015.00;;;;5027993;28;20726;-86
2021/12/10 10:10:12;;;;;;;2.15;1.17;;;;;11.50;99017.00;;;;5027077;28;20651;-86
2021/12/10 10:12:41;;;;;;;2.65;1.50;;;;;11.50;99017.00;;;;5021165;28;20220;-86
2021/12/10 10:15:16;;;;;;;3.83;1.60;;;;;11.50;99022.00;;;;5023486;28;20203;-86
2021/12/10 10:17:44;;;;;;;3.40;1.30;;;;;11.60;99018.00;;;;5027638;28;20198;-86
2021/12/10 10:20:15;;;;;;;3.92;1.55;;;;;11.60;99026.00;;;;5021747;28;20211;-87
2021/12/10 10:22:44;;;;;;;4.65;1.95;;;;;11.60;99031.00;;;;5028266;28;20204;-86
2021/12/10 10:25:12;;;;;;;3.17;1.40;;;;;11.60;99025.00;;;;5027650;28;20238;-86
2021/12/10 10:27:42;;;;;;;6.55;1.67;;;;;11.60;99026.00;;;;5043891;28;20286;-85
2021/12/10 10:30:15;;;;;;;3.17;1.38;;;;;11.60;99038.00;;;;5028546;28;20189;-85
2021/12/10 10:32:45;;;;;;;2.10;0.95;;;;;11.60;99037.00;;;;5028386;28;20220;-86
2021/12/10 10:35:17;;;;;;;2.50;1.75;;;;;11.60;99040.00;;;;5027892;28;20208;-86
2021/12/10 10:37:46;;;;;;;2.35;1.60;;;;;11.60;99027.00;;;;5016912;28;20609;-86
2021/12/10 10:40:16;;;;;;;3.33;1.60;;;;;11.60;99030.00;;;;5028962;28;20419;-86
2021/12/10 10:42:44;;;;;;;3.75;1.08;;;;;11.70;99025.00;;;;5027823;28;20228;-87
2021/12/10 10:45:27;;;;;;;2.28;1.30;;;;;11.60;99017.00;;;;5028877;28;20192;-86
2021/12/10 10:47:57;;;;;;;2.08;1.17;;;;;11.70;99024.00;;;;5029002;28;20203;-86
2021/12/10 10:50:30;;;;;;;2.38;1.35;;;;;11.70;99025.00;;;;5027182;28;20257;-87
2021/12/10 10:53:00;;;;;;;7.25;1.88;;;;;11.70;99031.00;;;;5026074;28;20434;-88
2021/12/10 10:55:30;;;;;;;4.85;1.50;;;;;11.70;99031.00;;;;5028308;28;20227;-87
2021/12/10 10:58:01;;;;;;;2.50;1.40;;;;;11.70;99031.00;;;;5028600;28;20203;-86
2021/12/10 11:00:43;;;;;;;4.40;1.83;;;;;11.70;99033.00;;;;5027600;28;20196;-87
2021/12/10 11:03:14;;;;;;;3.05;1.13;;;;;11.80;99028.00;;;;5027005;28;20662;-86
2021/12/10 11:05:47;;;;;;;5.57;1.63;;;;;11.80;99029.00;;;;5027672;28;20780;-87
2021/12/10 11:08:25;;;;;;;3.20;1.30;;;;;11.90;99034.00;;;;5028454;28;20196;-86
2021/12/10 11:10:58;;;;;;;3.72;1.90;;;;;11.90;99030.00;;;;5022043;28;20596;-86
2021/12/10 11:13:27;;;;;;;4.18;1.67;;;;;12.00;99026.00;;;;5027301;28;20316;-87
2021/12/10 11:15:59;;;;;;;2.40;1.60;;;;;12.00;99026.00;;;;5028347;28;20628;-86
2021/12/10 11:18:27;;;;;;;2.53;1.60;;;;;12.00;99030.00;;;;5027858;28;20200;-85
2021/12/10 11:20:55;;;;;;;4.35;1.90;;;;;12.10;99028.00;;;;5027549;28;20200;-86
2021/12/10 11:23:26;;;;;;;3.90;1.30;;;;;12.10;99025.00;;;;5023959;28;20209;-86
2021/12/10 11:25:55;;;;;;;5.88;1.80;;;;;12.20;99033.00;;;;5025267;28;20215;-87
2021/12/10 11:28:26;;;;;;;2.67;1.30;;;;;12.20;99038.00;;;;5024381;28;20632;-87
2021/12/10 11:31:03;;;;;;;3.40;1.50;;;;;12.20;99037.00;;;;5029416;28;20573;-85
2021/12/10 11:33:35;;;;;;;4.05;2.00;;;;;12.20;99036.00;;;;5022762;28;20312;-86
2021/12/10 11:36:07;;;;;;;4.68;1.33;;;;;12.30;99044.00;;;;5029715;28;20204;-85
2021/12/10 11:38:35;;;;;;;4.32;1.77;;;;;12.30;99037.00;;;;5031196;28;20733;-83
2021/12/10 11:41:05;;;;;;;2.78;1.60;;;;;12.30;99035.00;;;;5031761;28;20204;-83
2021/12/10 11:43:52;;;;;;;4.63;1.55;;;;;12.40;99048.00;;;;5027083;28;20233;-82
2021/12/10 11:49:21;;;;;;;2.63;1.63;;;;;12.40;99043.00;;;;5015810;28;20204;-82
2021/12/10 11:51:54;;;;;;;3.58;1.50;;;;;12.50;99039.00;;;;5031701;28;20230;-83
2021/12/10 11:54:26;;;;;;;3.70;1.55;;;;;12.50;99049.00;;;;5030918;28;20203;-83
2021/12/10 11:56:58;;;;;;;2.65;1.20;;;;;12.50;99043.00;;;;5030969;28;20765;-83
2021/12/10 11:59:28;;;;;;;2.83;1.25;;;;;12.60;99053.00;;;;5030944;28;20663;-83
2021/12/10 12:02:00;;;;;;;3.03;1.20;;;;;12.60;99055.00;;;;5016746;28;20216;-83
2021/12/10 12:04:32;;;;;;;3.22;1.30;;;;;12.60;99057.00;;;;5025921;28;20204;-82
2021/12/10 12:07:23;;;;;;;3.63;1.30;;;;;12.60;99055.00;;;;5030400;28;20554;-83
2021/12/10 12:09:54;;;;;;;2.03;1.00;;;;;12.60;99062.00;;;;5031491;28;20192;-83
2021/12/10 12:12:28;;;;;;;3.15;1.52;;;;;12.70;99049.00;;;;5030797;28;20224;-83
2021/12/10 12:15:09;;;;;;;2.17;1.35;;;;;12.70;99048.00;;;;5031351;28;20294;-83
2021/12/10 12:17:42;;;;;;;2.20;1.15;;;;;12.70;99049.00;;;;5026157;28;20212;-83
2021/12/10 12:20:26;;;;;;;2.70;1.40;;;;;12.70;99059.00;;;;5021023;28;20734;-83
2021/12/10 12:25:45;;;;;;;3.75;1.55;;;;;12.80;99065.00;;;;5030911;28;20211;-82
2021/12/10 12:28:17;;;;;;;3.45;1.65;;;;;12.70;99068.00;;;;5030866;28;20219;-82
2021/12/10 12:30:54;;;;;;;2.30;1.42;;;;;12.70;99069.00;;;;5029980;28;20196;-83
2021/12/10 12:33:25;;;;;;;2.05;1.10;;;;;12.80;99070.00;;;;5030137;28;20628;-83
2021/12/10 12:35:52;;;;;;;2.70;1.23;;;;;12.80;99071.00;;;;5016247;28;20580;-83
2021/12/10 12:38:23;;;;;;;2.20;1.23;;;;;12.80;99077.00;;;;5026319;28;20250;-82
2021/12/10 12:41:09;;;;;;;2.40;1.10;;;;;12.70;99085.00;;;;5030647;28;20212;-83
2021/12/10 12:43:37;;;;;;;2.67;1.13;;;;;12.80;99084.00;;;;5029546;28;20224;-82
2021/12/10 12:46:06;;;;;;;2.25;1.40;;;;;12.80;99093.00;;;;5030581;28;20199;-83
2021/12/10 12:48:37;;;;;;;4.00;1.10;;;;;12.80;99082.00;;;;5029108;28;20207;-82
2021/12/10 12:51:12;;;;;;;2.25;0.77;;;;;12.70;99090.00;;;;5029795;28;20627;-82
2021/12/10 12:53:40;;;;;;;3.45;1.30;;;;;12.80;99091.00;;;;5019342;28;20266;-83